sensor_id;sensor_type;location;lat;lon;timestamp;pressure;altitude;pressure_sealevel;temperature;humidity
32733;BME280;11867;51.198;11.966;2022-12-29T00:00:33;99696.97;;;9.98;73.46
32733;BME280;11867;51.198;11.966;2022-12-29T00:01:37;99691.69;;;10.07;72.67
32733;BME280;11867;51.198;11.966;2022-12-29T00:02:38;99696.75;;;9.95;72.87
32733;BME280;11867;51.198;11.966;2022-12-29T00:03:41;99696.56;;;9.86;73.00
32733;BME280;11867;51.198;11.966;2022-12-29T00:04:43;99699.59;;;9.84;73.46
32733;BME280;11867;51.198;11.966;2022-12-29T00:05:54;99696.75;;;9.95;73.12
32733;BME280;11867;51.198;11.966;2022-12-29T00:07:00;99698.81;;;10.03;72.77
32733;BME280;11867;51.198;11.966;2022-12-29T00:08:05;99699.34;;;10.05;72.69
32733;BME280;11867;51.198;11.966;2022-12-29T00:09:07;99696.69;;;10.00;72.88
32733;BME280;11867;51.198;11.966;2022-12-29T00:10:12;99686.63;;;9.76;73.04
32733;BME280;11867;51.198;11.966;2022-12-29T00:11:18;99688.91;;;9.88;72.90
32733;BME280;11867;51.198;11.966;2022-12-29T00:12:24;99685.09;;;9.70;73.42
32733;BME280;11867;51.198;11.966;2022-12-29T00:13:47;99681.78;;;9.49;74.21
32733;BME280;11867;51.198;11.966;2022-12-29T00:15:07;99681.13;;;9.81;73.98
32733;BME280;11867;51.198;11.966;2022-12-29T00:16:28;99680.41;;;9.52;74.11
32733;BME280;11867;51.198;11.966;2022-12-29T00:17:30;99687.13;;;9.59;74.15
32733;BME280;11867;51.198;11.966;2022-12-29T00:18:33;99697.38;;;9.67;73.92
32733;BME280;11867;51.198;11.966;2022-12-29T00:19:34;99695.44;;;9.68;73.96
32733;BME280;11867;51.198;11.966;2022-12-29T00:20:55;99700.66;;;9.88;73.50
32733;BME280;11867;51.198;11.966;2022-12-29T00:22:17;99684.88;;;9.85;73.18
32733;BME280;11867;51.198;11.966;2022-12-29T00:23:40;99682.53;;;9.98;73.10
32733;BME280;11867;51.198;11.966;2022-12-29T00:25:00;99684.59;;;10.06;72.70
32733;BME280;11867;51.198;11.966;2022-12-29T00:26:20;99678.72;;;9.99;73.24
32733;BME280;11867;51.198;11.966;2022-12-29T00:27:41;99687.69;;;9.80;73.36
32733;BME280;11867;51.198;11.966;2022-12-29T00:29:08;99680.53;;;9.84;73.77
32733;BME280;11867;51.198;11.966;2022-12-29T00:30:28;99693.91;;;10.05;73.55
32733;BME280;11867;51.198;11.966;2022-12-29T00:31:49;99681.50;;;9.94;73.37
32733;BME280;11867;51.198;11.966;2022-12-29T00:33:10;99676.06;;;9.94;73.42
32733;BME280;11867;51.198;11.966;2022-12-29T00:34:30;99681.06;;;9.86;73.65
32733;BME280;11867;51.198;11.966;2022-12-29T00:35:52;99679.69;;;9.65;74.73
32733;BME280;11867;51.198;11.966;2022-12-29T00:36:57;99671.94;;;9.53;75.15
32733;BME280;11867;51.198;11.966;2022-12-29T00:38:02;99669.78;;;9.74;74.54
32733;BME280;11867;51.198;11.966;2022-12-29T00:39:23;99668.94;;;9.98;73.95
32733;BME280;11867;51.198;11.966;2022-12-29T00:40:43;99682.91;;;10.10;73.38
32733;BME280;11867;51.198;11.966;2022-12-29T00:42:04;99673.28;;;9.99;73.83
32733;BME280;11867;51.198;11.966;2022-12-29T00:43:24;99674.22;;;10.08;73.69
32733;BME280;11867;51.198;11.966;2022-12-29T00:44:44;99670.28;;;10.19;73.43
32733;BME280;11867;51.198;11.966;2022-12-29T00:45:46;99671.81;;;10.25;73.26
32733;BME280;11867;51.198;11.966;2022-12-29T00:46:48;99669.03;;;10.30;73.12
32733;BME280;11867;51.198;11.966;2022-12-29T00:47:51;99673.19;;;10.23;73.32
32733;BME280;11867;51.198;11.966;2022-12-29T00:48:52;99665.91;;;9.99;73.73
32733;BME280;11867;51.198;11.966;2022-12-29T00:50:12;99664.78;;;10.00;74.22
32733;BME280;11867;51.198;11.966;2022-12-29T00:51:15;99666.78;;;9.76;74.83
32733;BME280;11867;51.198;11.966;2022-12-29T00:52:18;99667.75;;;9.61;75.43
32733;BME280;11867;51.198;11.966;2022-12-29T00:53:23;99669.31;;;9.67;75.46
32733;BME280;11867;51.198;11.966;2022-12-29T00:54:25;99660.72;;;9.60;75.81
32733;BME280;11867;51.198;11.966;2022-12-29T00:55:27;99664.06;;;9.76;75.50
32733;BME280;11867;51.198;11.966;2022-12-29T00:56:29;99654.03;;;9.71;75.56
32733;BME280;11867;51.198;11.966;2022-12-29T00:57:32;99648.75;;;9.80;75.51
32733;BME280;11867;51.198;11.966;2022-12-29T00:58:34;99649.41;;;9.72;75.56
32733;BME280;11867;51.198;11.966;2022-12-29T00:59:39;99667.13;;;9.69;75.69
32733;BME280;11867;51.198;11.966;2022-12-29T01:00:42;99654.09;;;9.66;75.96
32733;BME280;11867;51.198;11.966;2022-12-29T01:01:44;99656.19;;;9.74;76.13
32733;BME280;11867;51.198;11.966;2022-12-29T01:02:47;99655.53;;;9.82;75.69
32733;BME280;11867;51.198;11.966;2022-12-29T01:03:52;99653.53;;;9.88;75.47
32733;BME280;11867;51.198;11.966;2022-12-29T01:05:02;99655.44;;;9.87;75.42
32733;BME280;11867;51.198;11.966;2022-12-29T01:06:08;99665.38;;;9.78;75.70
32733;BME280;11867;51.198;11.966;2022-12-29T01:07:10;99665.78;;;9.66;76.20
32733;BME280;11867;51.198;11.966;2022-12-29T01:08:13;99646.69;;;9.72;76.29
32733;BME280;11867;51.198;11.966;2022-12-29T01:09:17;99650.59;;;9.84;76.07
32733;BME280;11867;51.198;11.966;2022-12-29T01:10:37;99649.88;;;9.98;75.52
32733;BME280;11867;51.198;11.966;2022-12-29T01:11:39;99660.63;;;10.08;75.09
32733;BME280;11867;51.198;11.966;2022-12-29T01:12:41;99656.84;;;10.04;75.18
32733;BME280;11867;51.198;11.966;2022-12-29T01:13:46;99646.72;;;9.90;75.56
32733;BME280;11867;51.198;11.966;2022-12-29T01:14:47;99655.59;;;9.96;75.57
32733;BME280;11867;51.198;11.966;2022-12-29T01:15:50;99659.59;;;10.04;75.50
32733;BME280;11867;51.198;11.966;2022-12-29T01:16:52;99650.59;;;10.03;75.39
32733;BME280;11867;51.198;11.966;2022-12-29T01:17:55;99650.31;;;10.05;75.57
32733;BME280;11867;51.198;11.966;2022-12-29T01:18:57;99654.06;;;10.09;75.41
32733;BME280;11867;51.198;11.966;2022-12-29T01:20:00;99648.53;;;10.14;75.15
32733;BME280;11867;51.198;11.966;2022-12-29T01:21:04;99647.47;;;10.15;75.35
32733;BME280;11867;51.198;11.966;2022-12-29T01:22:07;99647.47;;;10.15;75.46
32733;BME280;11867;51.198;11.966;2022-12-29T01:23:08;99643.91;;;9.96;75.73
32733;BME280;11867;51.198;11.966;2022-12-29T01:24:11;99644.41;;;9.98;76.33
32733;BME280;11867;51.198;11.966;2022-12-29T01:25:14;99639.47;;;10.00;76.22
32733;BME280;11867;51.198;11.966;2022-12-29T01:26:18;99642.34;;;9.89;76.28
32733;BME280;11867;51.198;11.966;2022-12-29T01:27:20;99650.38;;;10.00;76.40
32733;BME280;11867;51.198;11.966;2022-12-29T01:28:22;99646.63;;;10.15;76.12
32733;BME280;11867;51.198;11.966;2022-12-29T01:29:26;99657.53;;;10.15;76.01
32733;BME280;11867;51.198;11.966;2022-12-29T01:30:32;99654.22;;;10.18;75.88
32733;BME280;11867;51.198;11.966;2022-12-29T01:31:33;99650.03;;;10.25;75.65
32733;BME280;11867;51.198;11.966;2022-12-29T01:32:36;99657.75;;;10.18;76.04
32733;BME280;11867;51.198;11.966;2022-12-29T01:33:38;99662.25;;;10.47;75.26
32733;BME280;11867;51.198;11.966;2022-12-29T01:34:41;99655.53;;;10.58;74.80
32733;BME280;11867;51.198;11.966;2022-12-29T01:35:42;99662.09;;;10.57;74.72
32733;BME280;11867;51.198;11.966;2022-12-29T01:36:45;99660.75;;;10.74;74.39
32733;BME280;11867;51.198;11.966;2022-12-29T01:37:49;99665.84;;;10.61;74.42
32733;BME280;11867;51.198;11.966;2022-12-29T01:38:51;99660.28;;;10.53;74.65
32733;BME280;11867;51.198;11.966;2022-12-29T01:39:53;99657.44;;;10.58;75.06
32733;BME280;11867;51.198;11.966;2022-12-29T01:40:57;99665.91;;;10.56;74.91
32733;BME280;11867;51.198;11.966;2022-12-29T01:41:59;99665.72;;;10.53;75.03
32733;BME280;11867;51.198;11.966;2022-12-29T01:43:01;99663.28;;;10.51;75.34
32733;BME280;11867;51.198;11.966;2022-12-29T01:45:40;99666.53;;;10.86;74.20
32733;BME280;11867;51.198;11.966;2022-12-29T01:46:48;99663.19;;;10.89;74.10
32733;BME280;11867;51.198;11.966;2022-12-29T01:47:53;99661.00;;;11.05;73.74
32733;BME280;11867;51.198;11.966;2022-12-29T01:49:02;99660.59;;;10.98;73.79
32733;BME280;11867;51.198;11.966;2022-12-29T01:50:11;99661.13;;;10.67;74.85
32733;BME280;11867;51.198;11.966;2022-12-29T01:51:19;99669.34;;;10.81;74.80
32733;BME280;11867;51.198;11.966;2022-12-29T01:52:24;99656.47;;;10.67;75.21
32733;BME280;11867;51.198;11.966;2022-12-29T01:53:33;99663.88;;;10.81;74.62
32733;BME280;11867;51.198;11.966;2022-12-29T01:54:38;99657.72;;;10.75;74.80
32733;BME280;11867;51.198;11.966;2022-12-29T01:55:48;99655.06;;;10.70;75.04
32733;BME280;11867;51.198;11.966;2022-12-29T01:56:53;99663.47;;;10.74;75.24
32733;BME280;11867;51.198;11.966;2022-12-29T01:58:00;99658.69;;;10.65;75.44
32733;BME280;11867;51.198;11.966;2022-12-29T01:59:10;99658.22;;;10.44;75.97
32733;BME280;11867;51.198;11.966;2022-12-29T02:00:15;99647.16;;;10.55;76.13
32733;BME280;11867;51.198;11.966;2022-12-29T02:01:19;99651.88;;;10.82;75.39
32733;BME280;11867;51.198;11.966;2022-12-29T02:02:23;99654.94;;;10.94;74.71
32733;BME280;11867;51.198;11.966;2022-12-29T02:03:26;99656.53;;;10.95;74.51
32733;BME280;11867;51.198;11.966;2022-12-29T02:04:32;99661.16;;;10.48;75.97
32733;BME280;11867;51.198;11.966;2022-12-29T02:05:39;99651.28;;;10.33;76.77
32733;BME280;11867;51.198;11.966;2022-12-29T02:06:47;99657.84;;;10.51;76.55
32733;BME280;11867;51.198;11.966;2022-12-29T02:07:52;99651.41;;;10.61;76.19
32733;BME280;11867;51.198;11.966;2022-12-29T02:08:56;99656.41;;;10.54;76.01
32733;BME280;11867;51.198;11.966;2022-12-29T02:09:58;99655.84;;;10.57;76.45
32733;BME280;11867;51.198;11.966;2022-12-29T02:11:02;99645.91;;;10.47;76.83
32733;BME280;11867;51.198;11.966;2022-12-29T02:12:06;99650.63;;;10.41;76.82
32733;BME280;11867;51.198;11.966;2022-12-29T02:13:09;99644.72;;;10.53;76.78
32733;BME280;11867;51.198;11.966;2022-12-29T02:14:12;99649.78;;;10.60;76.64
32733;BME280;11867;51.198;11.966;2022-12-29T02:15:16;99648.81;;;10.69;76.45
32733;BME280;11867;51.198;11.966;2022-12-29T02:16:31;99642.84;;;10.67;76.21
32733;BME280;11867;51.198;11.966;2022-12-29T02:17:50;99641.72;;;10.68;76.40
32733;BME280;11867;51.198;11.966;2022-12-29T02:19:09;99644.78;;;10.81;76.22
32733;BME280;11867;51.198;11.966;2022-12-29T02:20:42;99639.41;;;11.08;75.00
32733;BME280;11867;51.198;11.966;2022-12-29T02:22:07;99645.88;;;11.13;74.80
32733;BME280;11867;51.198;11.966;2022-12-29T02:23:28;99644.16;;;11.17;74.62
32733;BME280;11867;51.198;11.966;2022-12-29T02:24:55;99644.88;;;11.36;73.69
32733;BME280;11867;51.198;11.966;2022-12-29T02:26:16;99638.00;;;11.39;74.06
32733;BME280;11867;51.198;11.966;2022-12-29T02:27:45;99638.81;;;11.39;73.81
32733;BME280;11867;51.198;11.966;2022-12-29T02:29:11;99635.97;;;11.58;73.59
32733;BME280;11867;51.198;11.966;2022-12-29T02:30:46;99630.72;;;11.48;73.41
32733;BME280;11867;51.198;11.966;2022-12-29T02:31:56;99624.66;;;11.37;73.82
32733;BME280;11867;51.198;11.966;2022-12-29T02:33:06;99634.94;;;10.99;74.82
32733;BME280;11867;51.198;11.966;2022-12-29T02:34:22;99623.31;;;10.93;75.44
32733;BME280;11867;51.198;11.966;2022-12-29T02:35:33;99621.19;;;10.90;76.07
32733;BME280;11867;51.198;11.966;2022-12-29T02:36:42;99613.53;;;11.06;75.62
32733;BME280;11867;51.198;11.966;2022-12-29T02:37:51;99612.00;;;11.14;75.16
32733;BME280;11867;51.198;11.966;2022-12-29T02:39:01;99617.88;;;11.07;75.56
32733;BME280;11867;51.198;11.966;2022-12-29T02:40:15;99608.19;;;11.15;75.22
32733;BME280;11867;51.198;11.966;2022-12-29T02:41:21;99619.78;;;11.20;75.13
32733;BME280;11867;51.198;11.966;2022-12-29T02:42:33;99619.09;;;11.01;75.93
32733;BME280;11867;51.198;11.966;2022-12-29T02:43:40;99614.34;;;11.06;75.85
32733;BME280;11867;51.198;11.966;2022-12-29T02:44:53;99609.66;;;10.93;76.23
32733;BME280;11867;51.198;11.966;2022-12-29T02:46:00;99614.56;;;11.10;75.64
32733;BME280;11867;51.198;11.966;2022-12-29T02:47:10;99602.22;;;11.13;75.61
32733;BME280;11867;51.198;11.966;2022-12-29T02:48:18;99604.22;;;10.93;75.96
32733;BME280;11867;51.198;11.966;2022-12-29T02:49:29;99605.22;;;10.83;76.36
32733;BME280;11867;51.198;11.966;2022-12-29T02:50:37;99598.78;;;10.27;78.63
32733;BME280;11867;51.198;11.966;2022-12-29T02:51:46;99596.84;;;10.47;78.34
32733;BME280;11867;51.198;11.966;2022-12-29T02:52:51;99593.84;;;10.62;77.79
32733;BME280;11867;51.198;11.966;2022-12-29T02:53:57;99585.63;;;10.81;77.28
32733;BME280;11867;51.198;11.966;2022-12-29T02:55:18;99591.94;;;10.63;77.77
32733;BME280;11867;51.198;11.966;2022-12-29T02:56:20;99591.28;;;10.71;77.49
32733;BME280;11867;51.198;11.966;2022-12-29T02:57:30;99582.06;;;10.81;77.37
32733;BME280;11867;51.198;11.966;2022-12-29T02:58:33;99579.56;;;10.84;77.19
32733;BME280;11867;51.198;11.966;2022-12-29T02:59:35;99586.22;;;10.78;77.11
32733;BME280;11867;51.198;11.966;2022-12-29T03:00:46;99582.63;;;10.50;78.13
32733;BME280;11867;51.198;11.966;2022-12-29T03:02:10;99579.72;;;10.27;78.92
32733;BME280;11867;51.198;11.966;2022-12-29T03:03:25;99579.72;;;10.27;79.13
32733;BME280;11867;51.198;11.966;2022-12-29T03:04:38;99564.81;;;10.39;78.94
32733;BME280;11867;51.198;11.966;2022-12-29T03:06:00;99567.38;;;10.49;78.36
32733;BME280;11867;51.198;11.966;2022-12-29T03:07:09;99572.44;;;10.56;78.43
32733;BME280;11867;51.198;11.966;2022-12-29T03:08:24;99578.41;;;10.58;78.25
32733;BME280;11867;51.198;11.966;2022-12-29T03:09:36;99575.44;;;10.54;78.16
32733;BME280;11867;51.198;11.966;2022-12-29T03:10:48;99566.28;;;10.50;77.94
32733;BME280;11867;51.198;11.966;2022-12-29T03:11:58;99561.13;;;10.62;78.03
32733;BME280;11867;51.198;11.966;2022-12-29T03:13:12;99568.50;;;10.62;77.81
32733;BME280;11867;51.198;11.966;2022-12-29T03:14:47;99565.91;;;10.70;77.47
32733;BME280;11867;51.198;11.966;2022-12-29T03:16:14;99558.97;;;10.45;78.05
32733;BME280;11867;51.198;11.966;2022-12-29T03:17:27;99561.19;;;10.43;77.98
32733;BME280;11867;51.198;11.966;2022-12-29T03:18:50;99554.59;;;10.63;77.58
32733;BME280;11867;51.198;11.966;2022-12-29T03:19:59;99554.59;;;10.63;77.53
32733;BME280;11867;51.198;11.966;2022-12-29T03:21:06;99558.91;;;10.64;77.33
32733;BME280;11867;51.198;11.966;2022-12-29T03:22:13;99556.38;;;10.54;77.84
32733;BME280;11867;51.198;11.966;2022-12-29T03:23:29;99550.72;;;10.50;77.95
32733;BME280;11867;51.198;11.966;2022-12-29T03:24:35;99559.72;;;10.51;77.70
32733;BME280;11867;51.198;11.966;2022-12-29T03:25:40;99567.66;;;10.47;77.89
32733;BME280;11867;51.198;11.966;2022-12-29T03:26:46;99566.69;;;10.57;77.96
32733;BME280;11867;51.198;11.966;2022-12-29T03:27:52;99576.28;;;10.55;77.74
32733;BME280;11867;51.198;11.966;2022-12-29T03:28:55;99566.22;;;10.69;77.69
32733;BME280;11867;51.198;11.966;2022-12-29T03:30:01;99570.16;;;10.63;77.30
32733;BME280;11867;51.198;11.966;2022-12-29T03:31:06;99564.97;;;10.61;77.63
32733;BME280;11867;51.198;11.966;2022-12-29T03:32:11;99560.38;;;10.76;77.26
32733;BME280;11867;51.198;11.966;2022-12-29T03:33:18;99555.50;;;10.59;77.67
32733;BME280;11867;51.198;11.966;2022-12-29T03:34:22;99573.16;;;10.61;77.74
32733;BME280;11867;51.198;11.966;2022-12-29T03:35:30;99556.38;;;10.54;78.12
32733;BME280;11867;51.198;11.966;2022-12-29T03:36:39;99562.50;;;10.32;78.74
32733;BME280;11867;51.198;11.966;2022-12-29T03:37:50;99563.22;;;10.38;78.79
32733;BME280;11867;51.198;11.966;2022-12-29T03:38:57;99566.75;;;10.52;78.40
32733;BME280;11867;51.198;11.966;2022-12-29T03:40:01;99567.19;;;10.59;78.42
32733;BME280;11867;51.198;11.966;2022-12-29T03:41:06;99568.63;;;10.57;78.39
32733;BME280;11867;51.198;11.966;2022-12-29T03:42:14;99563.56;;;10.50;78.43
32733;BME280;11867;51.198;11.966;2022-12-29T03:43:18;99569.31;;;10.62;78.42
32733;BME280;11867;51.198;11.966;2022-12-29T03:44:31;99566.88;;;10.47;78.75
32733;BME280;11867;51.198;11.966;2022-12-29T03:45:33;99549.59;;;10.38;78.98
32733;BME280;11867;51.198;11.966;2022-12-29T03:46:36;99569.19;;;10.40;79.32
32733;BME280;11867;51.198;11.966;2022-12-29T03:47:37;99569.88;;;10.45;79.12
32733;BME280;11867;51.198;11.966;2022-12-29T03:48:41;99576.06;;;10.51;78.87
32733;BME280;11867;51.198;11.966;2022-12-29T03:49:43;99575.03;;;10.47;78.98
32733;BME280;11867;51.198;11.966;2022-12-29T03:50:45;99574.66;;;10.54;79.15
32733;BME280;11867;51.198;11.966;2022-12-29T03:51:47;99571.75;;;10.64;78.74
32733;BME280;11867;51.198;11.966;2022-12-29T03:52:52;99572.47;;;10.69;78.54
32733;BME280;11867;51.198;11.966;2022-12-29T03:53:53;99573.88;;;10.81;78.35
32733;BME280;11867;51.198;11.966;2022-12-29T03:54:56;99570.91;;;10.96;77.67
32733;BME280;11867;51.198;11.966;2022-12-29T03:55:57;99578.34;;;10.77;78.08
32733;BME280;11867;51.198;11.966;2022-12-29T03:57:00;99564.47;;;10.59;79.02
32733;BME280;11867;51.198;11.966;2022-12-29T03:58:02;99573.88;;;10.67;79.15
32733;BME280;11867;51.198;11.966;2022-12-29T03:59:04;99578.25;;;10.82;78.76
32733;BME280;11867;51.198;11.966;2022-12-29T04:00:07;99578.47;;;10.85;78.76
32733;BME280;11867;51.198;11.966;2022-12-29T04:01:10;99576.94;;;10.93;78.30
32733;BME280;11867;51.198;11.966;2022-12-29T04:02:11;99575.34;;;10.92;78.46
32733;BME280;11867;51.198;11.966;2022-12-29T04:03:14;99575.91;;;10.89;78.65
32733;BME280;11867;51.198;11.966;2022-12-29T04:04:20;99576.53;;;10.86;78.54
32733;BME280;11867;51.198;11.966;2022-12-29T04:05:22;99580.31;;;11.04;78.53
32733;BME280;11867;51.198;11.966;2022-12-29T04:06:24;99586.03;;;11.16;78.20
32733;BME280;11867;51.198;11.966;2022-12-29T04:07:26;99578.78;;;11.11;78.16
32733;BME280;11867;51.198;11.966;2022-12-29T04:08:28;99584.72;;;11.14;78.29
32733;BME280;11867;51.198;11.966;2022-12-29T04:09:30;99568.88;;;11.02;79.11
32733;BME280;11867;51.198;11.966;2022-12-29T04:10:32;99574.31;;;10.88;79.53
32733;BME280;11867;51.198;11.966;2022-12-29T04:11:35;99575.34;;;10.92;79.87
32733;BME280;11867;51.198;11.966;2022-12-29T04:12:36;99568.88;;;10.88;80.06
32733;BME280;11867;51.198;11.966;2022-12-29T04:13:39;99564.22;;;10.88;80.18
32733;BME280;11867;51.198;11.966;2022-12-29T04:14:42;99565.72;;;10.95;79.94
32733;BME280;11867;51.198;11.966;2022-12-29T04:15:45;99555.03;;;10.84;80.81
32733;BME280;11867;51.198;11.966;2022-12-29T04:16:46;99561.47;;;10.75;81.40
32733;BME280;11867;51.198;11.966;2022-12-29T04:17:49;99561.97;;;10.77;81.37
32733;BME280;11867;51.198;11.966;2022-12-29T04:18:51;99547.47;;;10.81;80.95
32733;BME280;11867;51.198;11.966;2022-12-29T04:19:55;99551.38;;;10.89;81.02
32733;BME280;11867;51.198;11.966;2022-12-29T04:21:17;99543.19;;;10.89;81.19
32733;BME280;11867;51.198;11.966;2022-12-29T04:22:19;99544.41;;;10.83;81.45
32733;BME280;11867;51.198;11.966;2022-12-29T04:23:21;99553.19;;;10.80;81.82
32733;BME280;11867;51.198;11.966;2022-12-29T04:24:23;99550.78;;;10.78;81.71
32733;BME280;11867;51.198;11.966;2022-12-29T04:25:25;99542.81;;;10.82;81.81
32733;BME280;11867;51.198;11.966;2022-12-29T04:26:28;99530.78;;;10.97;81.36
32733;BME280;11867;51.198;11.966;2022-12-29T04:27:29;99531.47;;;11.16;80.33
32733;BME280;11867;51.198;11.966;2022-12-29T04:28:32;99528.44;;;11.18;80.38
32733;BME280;11867;51.198;11.966;2022-12-29T04:29:34;99524.13;;;11.17;80.42
32733;BME280;11867;51.198;11.966;2022-12-29T04:30:37;99534.22;;;11.02;81.05
32733;BME280;11867;51.198;11.966;2022-12-29T04:31:38;99513.22;;;11.03;80.87
32733;BME280;11867;51.198;11.966;2022-12-29T04:32:41;99538.38;;;10.86;81.52
32733;BME280;11867;51.198;11.966;2022-12-29T04:33:43;99536.34;;;10.78;81.87
32733;BME280;11867;51.198;11.966;2022-12-29T04:34:45;99524.31;;;10.65;82.29
32733;BME280;11867;51.198;11.966;2022-12-29T04:35:48;99513.50;;;10.60;82.76
32733;BME280;11867;51.198;11.966;2022-12-29T04:36:54;99520.16;;;10.67;82.62
32733;BME280;11867;51.198;11.966;2022-12-29T04:37:56;99510.28;;;10.72;82.35
32733;BME280;11867;51.198;11.966;2022-12-29T04:38:58;99528.22;;;10.73;82.46
32733;BME280;11867;51.198;11.966;2022-12-29T04:40:00;99523.22;;;10.80;82.35
32733;BME280;11867;51.198;11.966;2022-12-29T04:41:02;99514.84;;;10.90;82.04
32733;BME280;11867;51.198;11.966;2022-12-29T04:42:04;99519.56;;;10.84;82.36
32733;BME280;11867;51.198;11.966;2022-12-29T04:43:07;99519.16;;;10.91;82.18
32733;BME280;11867;51.198;11.966;2022-12-29T04:44:09;99519.34;;;10.81;82.79
32733;BME280;11867;51.198;11.966;2022-12-29T04:45:11;99526.13;;;10.69;83.40
32733;BME280;11867;51.198;11.966;2022-12-29T04:46:13;99511.78;;;10.78;83.30
32733;BME280;11867;51.198;11.966;2022-12-29T04:47:15;99504.31;;;10.69;83.15
32733;BME280;11867;51.198;11.966;2022-12-29T04:48:17;99506.84;;;10.80;82.97
32733;BME280;11867;51.198;11.966;2022-12-29T04:49:19;99494.31;;;10.65;83.56
32733;BME280;11867;51.198;11.966;2022-12-29T04:50:21;99498.75;;;10.75;83.25
32733;BME280;11867;51.198;11.966;2022-12-29T04:51:25;99485.63;;;10.77;83.13
32733;BME280;11867;51.198;11.966;2022-12-29T04:52:26;99487.44;;;10.67;83.42
32733;BME280;11867;51.198;11.966;2022-12-29T04:53:29;99488.25;;;10.68;83.67
32733;BME280;11867;51.198;11.966;2022-12-29T04:54:30;99477.06;;;10.69;83.49
32733;BME280;11867;51.198;11.966;2022-12-29T04:55:33;99481.78;;;10.50;84.39
32733;BME280;11867;51.198;11.966;2022-12-29T04:56:35;99491.50;;;10.70;83.82
32733;BME280;11867;51.198;11.966;2022-12-29T04:57:37;99489.06;;;10.68;83.49
32733;BME280;11867;51.198;11.966;2022-12-29T04:58:39;99482.59;;;10.64;83.53
32733;BME280;11867;51.198;11.966;2022-12-29T04:59:41;99492.59;;;10.55;84.10
32733;BME280;11867;51.198;11.966;2022-12-29T05:00:43;99497.72;;;10.43;84.72
32733;BME280;11867;51.198;11.966;2022-12-29T05:01:45;99490.84;;;10.45;84.44
32733;BME280;11867;51.198;11.966;2022-12-29T05:02:47;99491.25;;;10.39;84.79
32733;BME280;11867;51.198;11.966;2022-12-29T05:03:50;99492.28;;;10.43;84.82
32733;BME280;11867;51.198;11.966;2022-12-29T05:04:53;99492.78;;;10.45;84.54
32733;BME280;11867;51.198;11.966;2022-12-29T05:05:55;99485.41;;;10.32;84.89
32733;BME280;11867;51.198;11.966;2022-12-29T05:07:02;99489.03;;;10.41;84.79
32733;BME280;11867;51.198;11.966;2022-12-29T05:08:04;99484.72;;;10.40;84.85
32733;BME280;11867;51.198;11.966;2022-12-29T05:09:06;99489.84;;;10.41;84.46
32733;BME280;11867;51.198;11.966;2022-12-29T05:10:08;99486.50;;;10.30;84.93
32733;BME280;11867;51.198;11.966;2022-12-29T05:11:11;99481.78;;;10.36;84.67
32733;BME280;11867;51.198;11.966;2022-12-29T05:12:12;99485.50;;;10.40;84.72
32733;BME280;11867;51.198;11.966;2022-12-29T05:13:18;99477.94;;;10.51;84.04
32733;BME280;11867;51.198;11.966;2022-12-29T05:14:21;99479.75;;;10.56;83.95
32733;BME280;11867;51.198;11.966;2022-12-29T05:15:23;99479.16;;;10.45;84.32
32733;BME280;11867;51.198;11.966;2022-12-29T05:16:25;99473.88;;;10.35;84.59
32733;BME280;11867;51.198;11.966;2022-12-29T05:17:27;99477.22;;;10.45;84.05
32733;BME280;11867;51.198;11.966;2022-12-29T05:18:29;99480.06;;;10.40;84.16
32733;BME280;11867;51.198;11.966;2022-12-29T05:19:31;99480.84;;;10.41;84.14
32733;BME280;11867;51.198;11.966;2022-12-29T05:20:33;99480.47;;;10.47;84.04
32733;BME280;11867;51.198;11.966;2022-12-29T05:21:35;99478.56;;;10.48;84.03
32733;BME280;11867;51.198;11.966;2022-12-29T05:22:39;99482.16;;;10.29;84.43
32733;BME280;11867;51.198;11.966;2022-12-29T05:23:40;99492.69;;;10.17;85.17
32733;BME280;11867;51.198;11.966;2022-12-29T05:24:43;99492.09;;;10.20;85.38
32733;BME280;11867;51.198;11.966;2022-12-29T05:25:44;99492.47;;;10.14;85.33
32733;BME280;11867;51.198;11.966;2022-12-29T05:26:47;99491.34;;;10.15;85.60
32733;BME280;11867;51.198;11.966;2022-12-29T05:27:49;99489.28;;;10.25;84.97
32733;BME280;11867;51.198;11.966;2022-12-29T05:28:51;99482.16;;;10.29;84.82
32733;BME280;11867;51.198;11.966;2022-12-29T05:29:53;99482.72;;;10.26;84.85
32733;BME280;11867;51.198;11.966;2022-12-29T05:30:55;99490.75;;;10.37;84.79
32733;BME280;11867;51.198;11.966;2022-12-29T05:31:57;99491.25;;;10.39;84.51
32733;BME280;11867;51.198;11.966;2022-12-29T05:32:59;99482.44;;;10.28;84.71
32733;BME280;11867;51.198;11.966;2022-12-29T05:34:01;99491.75;;;10.41;84.51
32733;BME280;11867;51.198;11.966;2022-12-29T05:35:04;99486.19;;;10.32;84.46
32733;BME280;11867;51.198;11.966;2022-12-29T05:36:08;99485.44;;;10.26;84.86
32733;BME280;11867;51.198;11.966;2022-12-29T05:37:13;99477.41;;;10.35;84.65
32733;BME280;11867;51.198;11.966;2022-12-29T05:38:16;99492.66;;;10.36;84.42
32733;BME280;11867;51.198;11.966;2022-12-29T05:39:19;99481.13;;;10.25;84.87
32733;BME280;11867;51.198;11.966;2022-12-29T05:40:20;99476.72;;;10.29;84.55
32733;BME280;11867;51.198;11.966;2022-12-29T05:41:23;99472.44;;;10.23;85.07
32733;BME280;11867;51.198;11.966;2022-12-29T05:42:25;99473.63;;;10.17;85.25
32733;BME280;11867;51.198;11.966;2022-12-29T05:43:27;99476.66;;;10.16;85.65
32733;BME280;11867;51.198;11.966;2022-12-29T05:44:29;99479.88;;;10.18;85.70
32733;BME280;11867;51.198;11.966;2022-12-29T05:45:31;99479.47;;;10.24;85.31
32733;BME280;11867;51.198;11.966;2022-12-29T05:46:33;99475.84;;;10.15;85.59
32733;BME280;11867;51.198;11.966;2022-12-29T05:47:35;99471.59;;;10.09;86.30
32733;BME280;11867;51.198;11.966;2022-12-29T05:48:37;99486.69;;;10.01;86.63
32733;BME280;11867;51.198;11.966;2022-12-29T05:49:39;99477.56;;;10.11;86.43
32733;BME280;11867;51.198;11.966;2022-12-29T05:50:41;99476.44;;;10.12;86.42